Time;durP1;ratioP1;P1;durP2;ratioP2;P2;SDS_P1;SDS_P2;PMS_P1;PMS_P2;Temp;Humidity;BMP_temperature;BMP_pressure;BME280_temperature;BME280_humidity;BME280_pressure;Samples;Min_cycle;Max_cycle;Signal;HPM_P1;HPM_P2
2023/07/10 00:00:13;;;;;;;4.20;2.47;;;20.70;80.00;;;21.13;53.69;95445.63;4962570;28;20491;-60
2023/07/10 00:02:40;;;;;;;8.23;3.43;;;20.70;80.30;;;21.09;53.97;95455.06;4962135;28;20464;-67
2023/07/10 00:05:14;;;;;;;3.10;2.90;;;20.60;80.40;;;21.05;54.00;95451.13;4959011;28;20490;-58
2023/07/10 00:07:41;;;;;;;3.63;2.93;;;20.50;80.90;;;20.98;54.67;95452.91;4962875;28;21047;-64
2023/07/10 00:10:10;;;;;;;4.20;3.43;;;20.50;81.60;;;20.93;54.36;95452.66;4962916;28;20479;-60
2023/07/10 00:12:37;;;;;;;3.83;3.40;;;20.40;81.30;;;20.87;54.66;95448.06;4962896;28;20455;-59
2023/07/10 00:15:19;;;;;;;2.97;2.70;;;20.40;81.60;;;20.78;55.33;95437.47;4963149;28;20483;-58
2023/07/10 00:17:47;;;;;;;3.37;3.10;;;20.40;82.00;;;20.72;54.87;95434.72;4958564;28;20455;-64
2023/07/10 00:20:17;;;;;;;3.83;3.07;;;20.20;82.00;;;20.66;55.18;95444.31;4963135;28;20480;-58
2023/07/10 00:22:44;;;;;;;5.90;3.40;;;20.20;82.10;;;20.61;55.24;95444.03;4962523;28;20826;-59
2023/07/10 00:25:11;;;;;;;3.77;3.47;;;20.20;82.50;;;20.56;55.41;95449.94;4963277;28;20537;-64
2023/07/10 00:27:39;;;;;;;2.70;2.50;;;20.10;82.60;;;20.51;55.72;95447.00;4962832;28;20460;-64
2023/07/10 00:30:16;;;;;;;4.73;2.70;;;20.00;83.10;;;20.46;55.94;95443.22;4962790;28;20540;-59
2023/07/10 00:32:44;;;;;;;3.10;2.90;;;20.00;83.40;;;20.41;56.12;95452.63;4964859;28;21111;-60
2023/07/10 00:35:16;;;;;;;4.40;2.60;;;20.00;84.60;;;20.36;56.07;95452.38;4967525;28;20475;-65
2023/07/10 00:37:45;;;;;;;3.50;3.20;;;19.90;84.20;;;20.32;56.56;95453.75;4967829;28;20450;-64
2023/07/10 00:40:22;;;;;;;2.60;2.40;;;19.90;84.40;;;20.26;56.71;95445.66;4967122;28;20484;-65
2023/07/10 00:42:51;;;;;;;3.77;2.90;;;19.80;84.60;;;20.20;56.75;95452.56;4961552;28;20986;-59
2023/07/10 00:45:20;;;;;;;3.00;2.80;;;19.80;84.90;;;20.16;56.73;95445.94;4965933;28;20475;-60
2023/07/10 00:47:57;;;;;;;4.37;2.97;;;19.70;85.00;;;20.10;57.50;95452.03;4960212;28;20452;-64
2023/07/10 00:50:31;;;;;;;3.13;2.87;;;19.70;85.20;;;20.05;56.88;95457.94;4966321;28;20479;-61
2023/07/10 00:52:58;;;;;;;3.57;3.10;;;19.60;85.50;;;20.01;57.35;95448.63;4964184;28;20442;-64
2023/07/10 00:55:30;;;;;;;3.50;3.20;;;19.60;85.70;;;19.99;57.55;95454.13;4966106;28;20480;-64
2023/07/10 00:58:06;;;;;;;10.63;3.40;;;19.50;85.60;;;19.97;57.74;95453.50;4960555;28;20463;-59
2023/07/10 01:00:35;;;;;;;5.33;3.17;;;19.50;85.60;;;19.94;57.95;95453.88;4966005;28;20475;-63
2023/07/10 01:03:03;;;;;;;3.33;3.03;;;19.50;86.20;;;19.91;57.46;95461.41;4962050;28;20480;-64
2023/07/10 01:05:30;;;;;;;4.80;2.70;;;19.50;86.60;;;19.89;57.81;95461.56;4965928;28;20558;-64
2023/07/10 01:07:58;;;;;;;4.40;3.00;;;19.50;86.80;;;19.85;58.38;95454.97;4964290;28;20481;-59
2023/07/10 01:10:26;;;;;;;5.03;3.50;;;19.40;87.20;;;19.82;57.87;95453.47;4966125;28;20476;-65
2023/07/10 01:12:53;;;;;;;6.93;3.60;;;19.40;87.20;;;19.79;58.35;95450.34;4963857;28;20975;-65
2023/07/10 01:15:20;;;;;;;3.67;3.30;;;19.30;87.20;;;19.77;58.21;95452.38;4965592;28;20479;-59
2023/07/10 01:17:49;;;;;;;3.93;3.40;;;19.30;87.60;;;19.75;58.40;95457.03;4964470;28;20546;-65
2023/07/10 01:20:39;;;;;;;4.50;3.37;;;19.30;87.50;;;19.71;58.99;95449.38;4964667;28;21325;-65
2023/07/10 01:23:08;;;;;;;2.93;2.73;;;19.30;87.90;;;19.70;58.47;95461.09;4963399;28;20831;-59
2023/07/10 01:25:39;;;;;;;3.17;2.97;;;19.20;87.70;;;19.67;58.19;95460.59;4961478;28;20480;-65
2023/07/10 01:28:09;;;;;;;3.00;2.80;;;19.20;87.70;;;19.65;58.79;95463.47;4964848;28;20525;-65
2023/07/10 01:30:37;;;;;;;5.47;3.53;;;19.20;87.90;;;19.63;58.79;95459.34;4964845;28;20598;-59
2023/07/10 01:33:05;;;;;;;3.40;3.20;;;19.20;88.30;;;19.62;58.24;95457.66;4964882;28;20546;-63
2023/07/10 01:35:32;;;;;;;3.63;2.83;;;19.20;88.10;;;19.60;58.42;95457.84;4964982;28;20904;-59
2023/07/10 01:37:59;;;;;;;3.83;3.50;;;19.10;88.20;;;19.59;58.74;95461.53;4963674;28;20513;-65
2023/07/10 01:40:32;;;;;;;3.10;2.90;;;19.10;88.40;;;19.58;58.88;95453.69;4962566;28;20619;-64
2023/07/10 01:43:00;;;;;;;5.37;3.43;;;19.10;88.30;;;19.55;58.74;95452.25;4964970;28;21358;-64
2023/07/10 01:45:27;;;;;;;3.43;3.10;;;19.10;88.40;;;19.53;58.91;95446.22;4963632;28;20479;-59
2023/07/10 01:47:54;;;;;;;7.53;3.50;;;19.10;88.40;;;19.50;58.63;95460.78;4961718;28;20451;-65
2023/07/10 01:50:21;;;;;;;3.23;3.03;;;19.00;88.50;;;19.49;58.48;95453.78;4959414;28;20479;-65
2023/07/10 01:52:49;;;;;;;3.70;3.43;;;19.10;88.60;;;19.47;58.71;95455.81;4965123;28;20455;-64
2023/07/10 01:55:17;;;;;;;3.47;3.20;;;19.00;88.80;;;19.46;58.54;95458.66;4963011;28;20479;-59
2023/07/10 01:57:45;;;;;;;2.93;2.73;;;19.00;89.00;;;19.44;59.00;95456.16;4964950;28;20532;-58
2023/07/10 02:00:14;;;;;;;3.50;3.10;;;19.00;89.00;;;19.42;58.90;95452.00;4959624;28;20580;-60
2023/07/10 02:02:41;;;;;;;4.10;3.63;;;19.00;89.10;;;19.40;58.85;95459.38;4963557;28;20455;-64
2023/07/10 02:05:09;;;;;;;3.67;3.33;;;18.90;89.10;;;19.39;58.75;95452.38;4960258;28;20507;-59
2023/07/10 02:07:36;;;;;;;4.13;3.70;;;18.90;89.40;;;19.35;59.07;95458.06;4963665;28;20460;-61
2023/07/10 02:10:04;;;;;;;5.50;2.97;;;18.90;89.40;;;19.33;59.16;95457.44;4964140;28;20492;-59
2023/07/10 02:12:32;;;;;;;3.70;3.50;;;18.90;89.70;;;19.31;59.83;95467.44;4964119;28;20456;-59
2023/07/10 02:15:00;;;;;;;4.57;3.67;;;18.80;89.90;;;19.30;59.66;95464.94;4964718;28;20490;-60
2023/07/10 02:17:27;;;;;;;6.50;3.83;;;18.90;90.00;;;19.28;59.51;95459.78;4958229;28;20452;-60
2023/07/10 02:19:55;;;;;;;3.10;2.90;;;18.80;90.10;;;19.25;59.55;95462.81;4964369;28;20532;-65
2023/07/10 02:22:22;;;;;;;3.77;3.37;;;18.80;90.10;;;19.23;60.00;95453.34;4963861;28;20460;-64
2023/07/10 02:24:49;;;;;;;8.40;3.77;;;18.80;90.50;;;19.21;59.85;95469.53;4960613;28;21027;-64
2023/07/10 02:27:17;;;;;;;10.73;4.10;;;18.80;90.40;;;19.17;59.66;95463.69;4960932;28;20464;-65
2023/07/10 02:29:44;;;;;;;3.90;3.30;;;18.70;90.30;;;19.15;59.82;95467.56;4964637;28;20552;-59
2023/07/10 02:32:13;;;;;;;5.63;3.60;;;18.70;90.40;;;19.12;59.91;95471.41;4961903;28;20509;-59
2023/07/10 02:34:40;;;;;;;3.67;3.37;;;18.70;90.40;;;19.09;59.78;95481.63;4964243;28;20532;-64
2023/07/10 02:37:07;;;;;;;3.80;3.50;;;18.70;90.40;;;19.07;60.04;95470.28;4960224;28;20729;-65
2023/07/10 02:39:34;;;;;;;8.10;3.50;;;18.60;90.40;;;19.04;60.22;95475.97;4963579;28;20476;-59
2023/07/10 02:42:02;;;;;;;4.77;4.37;;;18.60;90.60;;;19.02;60.58;95488.66;4963210;28;20455;-65
2023/07/10 02:44:30;;;;;;;6.60;3.50;;;18.60;90.80;;;18.99;60.89;95485.34;4964316;28;20510;-59
2023/07/10 02:46:57;;;;;;;4.00;3.60;;;18.60;91.00;;;18.96;60.93;95485.69;4962027;28;20513;-59
2023/07/10 02:49:25;;;;;;;3.63;3.00;;;18.50;91.00;;;18.93;60.53;95485.19;4960541;28;20544;-64
2023/07/10 02:51:53;;;;;;;4.10;3.80;;;18.50;90.90;;;18.91;60.64;95485.38;4962352;28;20513;-59
2023/07/10 02:54:20;;;;;;;9.13;3.33;;;18.50;91.10;;;18.87;60.63;95481.44;4965024;28;21367;-59
2023/07/10 02:56:47;;;;;;;4.80;3.50;;;18.50;91.30;;;18.85;61.37;95493.25;4963361;28;20460;-65
2023/07/10 02:59:15;;;;;;;3.50;3.20;;;18.40;91.40;;;18.84;61.65;95492.41;4959586;28;20491;-64
2023/07/10 03:01:42;;;;;;;4.40;3.97;;;18.40;91.60;;;18.83;61.41;95493.41;4960378;28;20463;-66
2023/07/10 03:04:09;;;;;;;3.73;3.03;;;18.40;91.70;;;18.83;61.68;95495.25;4963003;28;20498;-59
2023/07/10 03:06:38;;;;;;;4.13;3.83;;;18.40;91.70;;;18.81;61.38;95492.75;4964210;28;20521;-60
2023/07/10 03:09:05;;;;;;;7.03;4.40;;;18.40;91.70;;;18.81;61.51;95492.75;4962055;28;20846;-60
2023/07/10 03:11:32;;;;;;;4.07;3.70;;;18.40;91.70;;;18.78;61.46;95493.09;4964009;28;20455;-61
2023/07/10 03:14:01;;;;;;;3.60;2.93;;;18.40;91.70;;;18.77;61.88;95496.78;4961084;28;20459;-59
2023/07/10 03:16:28;;;;;;;3.87;3.57;;;18.40;91.80;;;18.76;61.24;95505.75;4964151;28;20463;-60
2023/07/10 03:18:56;;;;;;;7.70;3.90;;;18.30;91.80;;;18.76;61.88;95497.75;4962113;28;20550;-61
2023/07/10 03:21:23;;;;;;;6.60;2.87;;;18.30;91.90;;;18.75;61.75;95501.47;4963850;28;20466;-65
2023/07/10 03:23:52;;;;;;;12.67;4.00;;;18.30;91.80;;;18.76;61.52;95495.09;4962706;28;21009;-65
2023/07/10 03:26:19;;;;;;;5.90;4.07;;;18.30;91.90;;;18.77;61.47;95499.44;4964050;28;21383;-66
2023/07/10 03:28:46;;;;;;;6.40;3.93;;;18.30;91.90;;;18.81;61.16;95498.09;4961952;28;20459;-66
2023/07/10 03:31:14;;;;;;;4.27;3.90;;;18.30;92.00;;;18.84;61.00;95503.06;4964415;28;20484;-64
2023/07/10 03:33:41;;;;;;;3.70;3.40;;;18.40;91.90;;;18.88;61.26;95509.72;4962952;28;20513;-58
2023/07/10 03:36:09;;;;;;;9.47;3.10;;;18.40;91.90;;;18.91;60.96;95503.22;4964236;28;21010;-65
2023/07/10 03:38:37;;;;;;;3.67;3.40;;;18.40;91.80;;;18.94;60.98;95509.03;4962454;28;20492;-67
2023/07/10 03:41:05;;;;;;;12.93;3.83;;;18.50;91.90;;;18.95;60.74;95510.69;4961240;28;20667;-65
2023/07/10 03:43:33;;;;;;;3.67;3.33;;;18.50;91.90;;;18.98;60.81;95515.66;4960554;28;20533;-59
2023/07/10 03:46:00;;;;;;;7.43;5.23;;;18.50;92.00;;;19.01;60.81;95521.66;4961809;28;20499;-66
2023/07/10 03:48:27;;;;;;;4.57;3.80;;;18.50;92.10;;;19.04;61.03;95518.63;4958601;28;20521;-66
2023/07/10 03:50:54;;;;;;;5.07;3.63;;;18.60;92.10;;;19.08;61.85;95525.28;4959455;28;20483;-59
2023/07/10 03:53:22;;;;;;;4.37;4.07;;;18.60;92.30;;;19.12;60.66;95518.59;4965032;28;20463;-59
2023/07/10 03:55:50;;;;;;;6.63;4.13;;;18.60;92.00;;;19.16;60.97;95526.06;4962597;28;21092;-64
2023/07/10 03:58:22;;;;;;;5.47;3.87;;;18.70;92.00;;;19.24;60.79;95530.50;4961656;28;20486;-61
2023/07/10 04:00:50;;;;;;;4.80;3.50;;;18.70;92.10;;;19.29;60.95;95520.13;4957510;28;20475;-65
2023/07/10 04:03:20;;;;;;;4.97;3.37;;;18.80;92.00;;;19.35;60.92;95522.09;4965030;28;20456;-66
2023/07/10 04:05:49;;;;;;;8.93;2.90;;;18.90;91.90;;;19.41;60.14;95530.38;4962174;28;20499;-65
2023/07/10 04:08:17;;;;;;;3.80;3.50;;;18.90;91.90;;;19.45;60.33;95531.69;4962561;28;20458;-59
2023/07/10 04:10:50;;;;;;;7.87;4.70;;;19.00;91.90;;;19.49;60.50;95522.34;4960868;28;20977;-59
2023/07/10 04:13:18;;;;;;;6.30;3.37;;;19.00;91.80;;;19.53;60.34;95524.47;4964210;28;20505;-59
2023/07/10 04:16:00;;;;;;;3.83;3.50;;;19.00;91.70;;;19.57;60.60;95538.25;4959794;28;21080;-60
2023/07/10 04:18:29;;;;;;;3.80;3.60;;;19.10;91.70;;;19.60;60.09;95529.09;4961339;28;20878;-60
2023/07/10 04:20:57;;;;;;;9.53;3.80;;;19.10;91.80;;;19.63;60.16;95537.53;4960270;28;20483;-61
2023/07/10 04:23:25;;;;;;;8.23;4.30;;;19.10;91.60;;;19.65;60.05;95522.19;4962064;28;21045;-67
2023/07/10 04:25:52;;;;;;;5.87;3.87;;;19.20;91.60;;;19.65;60.03;95522.19;4966652;28;20533;-60
2023/07/10 04:28:21;;;;;;;4.03;3.63;;;19.20;91.60;;;19.65;60.18;95522.19;4962251;28;20952;-60
2023/07/10 04:30:48;;;;;;;13.60;4.80;;;19.20;91.80;;;19.64;60.15;95525.03;4956190;28;21088;-58
2023/07/10 04:33:16;;;;;;;9.70;5.00;;;19.20;91.70;;;19.64;60.16;95531.22;4958044;28;20467;-60
2023/07/10 04:35:43;;;;;;;13.40;4.93;;;19.20;91.80;;;19.67;60.11;95530.00;4960768;28;20487;-67
2023/07/10 04:38:11;;;;;;;10.90;4.37;;;19.20;92.00;;;19.71;60.36;95537.47;4960738;28;20904;-67
2023/07/10 04:40:38;;;;;;;9.30;4.30;;;19.20;91.90;;;19.77;60.10;95533.28;4962657;28;21029;-66
2023/07/10 04:43:05;;;;;;;9.50;4.40;;;19.30;92.00;;;19.84;60.80;95533.38;4966886;28;20460;-66
2023/07/10 04:45:34;;;;;;;17.17;4.90;;;19.40;92.20;;;19.91;60.21;95530.81;4962157;28;21019;-66
2023/07/10 04:48:01;;;;;;;15.80;5.50;;;19.40;92.00;;;19.98;60.37;95529.09;4961786;28;20491;-65
2023/07/10 04:50:29;;;;;;;9.30;6.00;;;19.50;92.00;;;20.03;59.68;95532.88;4977651;28;20484;-59
2023/07/10 04:52:56;;;;;;;9.83;5.10;;;19.50;91.90;;;20.10;59.91;95529.47;4965641;28;20452;-67
2023/07/10 04:55:23;;;;;;;17.47;4.93;;;19.60;91.90;;;20.17;59.93;95533.06;4966161;28;20743;-67
2023/07/10 04:57:51;;;;;;;9.43;4.87;;;19.70;92.00;;;20.23;59.90;95530.50;4959012;28;20518;-66
2023/07/10 05:00:19;;;;;;;8.63;4.80;;;19.70;92.00;;;20.31;60.14;95528.72;4963704;28;21007;-59
2023/07/10 05:02:48;;;;;;;9.70;5.20;;;19.80;92.00;;;20.37;59.76;95519.97;4969616;28;20863;-60
2023/07/10 05:05:15;;;;;;;15.63;5.67;;;19.90;92.10;;;20.38;59.86;95521.66;4960968;28;20518;-61
2023/07/10 05:07:43;;;;;;;7.20;5.03;;;19.90;92.00;;;20.48;60.01;95524.03;4959978;28;20480;-65
2023/07/10 05:10:11;;;;;;;16.90;5.40;;;20.00;92.30;;;20.53;59.78;95521.66;4963307;28;20999;-67
2023/07/10 05:12:38;;;;;;;11.00;5.10;;;20.00;92.20;;;20.59;59.78;95526.25;4964789;28;20501;-66
2023/07/10 05:15:07;;;;;;;7.40;4.87;;;20.10;92.20;;;20.67;59.69;95526.19;4962795;28;20479;-67
2023/07/10 05:17:34;;;;;;;9.67;4.80;;;20.20;92.10;;;20.76;59.54;95530.41;4964444;28;20517;-67
2023/07/10 05:20:03;;;;;;;14.47;5.30;;;20.20;92.10;;;20.88;59.57;95537.94;4963227;28;20483;-65
2023/07/10 05:22:31;;;;;;;13.10;5.90;;;20.30;92.10;;;21.03;59.31;95532.56;4956124;28;20983;-59
2023/07/10 05:24:58;;;;;;;11.60;5.60;;;20.50;92.10;;;21.18;59.01;95532.50;4960205;28;20499;-68
2023/07/10 05:27:25;;;;;;;11.37;5.40;;;20.60;92.00;;;21.36;59.04;95535.56;4965284;28;20497;-68
2023/07/10 05:29:53;;;;;;;13.40;6.30;;;20.80;92.20;;;21.56;58.85;95526.94;4955907;28;20476;-68
2023/07/10 05:32:20;;;;;;;16.20;6.90;;;20.90;92.00;;;21.77;58.48;95534.16;4963785;28;20470;-66
2023/07/10 05:34:48;;;;;;;9.00;4.33;;;21.10;91.70;;;21.98;57.60;95522.53;4962264;28;20562;-69
2023/07/10 05:37:16;;;;;;;21.67;5.57;;;21.30;91.50;;;22.22;57.48;95533.88;4960160;28;20894;-68
2023/07/10 05:39:44;;;;;;;11.43;5.80;;;21.60;91.30;;;22.42;57.01;95534.84;4960664;28;20479;-67
2023/07/10 05:42:13;;;;;;;13.43;6.53;;;21.80;91.00;;;22.62;56.89;95534.94;4966508;28;20577;-67
2023/07/10 05:44:40;;;;;;;19.63;7.43;;;21.90;90.80;;;22.81;56.37;95517.28;4962669;28;20932;-68
2023/07/10 05:47:08;;;;;;;13.30;6.77;;;22.20;90.60;;;23.03;55.89;95535.94;4964523;28;20864;-67
2023/07/10 05:49:35;;;;;;;23.77;6.53;;;22.40;90.50;;;23.18;55.21;95530.44;4964559;28;20476;-67
2023/07/10 05:52:03;;;;;;;45.50;10.90;;;22.50;90.30;;;23.30;55.20;95536.03;4963582;28;20552;-66
2023/07/10 05:54:32;;;;;;;14.77;6.13;;;22.70;90.20;;;23.45;55.58;95531.31;4963922;28;20540;-69
2023/07/10 05:56:59;;;;;;;24.83;6.70;;;22.80;89.90;;;23.66;55.14;95534.88;4954336;28;20471;-66
2023/07/10 05:59:26;;;;;;;20.83;7.10;;;23.00;89.40;;;23.86;54.47;95535.72;4963905;28;20479;-68
2023/07/10 06:01:54;;;;;;;26.40;9.30;;;23.20;89.30;;;24.08;54.25;95536.34;4973837;28;20842;-65
2023/07/10 06:04:21;;;;;;;20.53;8.10;;;23.30;89.50;;;24.29;53.92;95532.59;4962155;28;20545;-68
2023/07/10 06:06:48;;;;;;;18.90;6.37;;;23.60;88.20;;;24.49;53.02;95534.41;4961324;28;20463;-68
2023/07/10 06:09:17;;;;;;;12.73;6.97;;;23.80;88.00;;;24.69;53.20;95532.53;4964760;28;21019;-68
2023/07/10 06:11:46;;;;;;;5.50;4.53;;;24.00;88.00;;;24.92;52.90;95539.28;4963033;28;20456;-67
2023/07/10 06:14:14;;;;;;;9.23;5.13;;;24.20;87.30;;;25.16;52.62;95536.88;4962953;28;20993;-67
2023/07/10 06:16:41;;;;;;;7.63;4.50;;;24.40;86.80;;;25.34;51.54;95531.63;4962146;28;20545;-61
2023/07/10 06:19:08;;;;;;;22.33;6.33;;;24.60;85.90;;;25.53;51.91;95537.97;4967310;28;20525;-61
2023/07/10 06:21:35;;;;;;;16.00;5.20;;;24.80;85.50;;;25.73;51.58;95535.13;4959304;28;20451;-59
2023/07/10 06:24:03;;;;;;;13.77;4.87;;;24.90;85.00;;;25.97;51.17;95534.53;4963196;28;20455;-60
2023/07/10 06:26:30;;;;;;;9.33;4.60;;;25.20;85.70;;;26.20;50.78;95533.97;4961881;28;20505;-60
2023/07/10 06:28:59;;;;;;;5.30;4.80;;;25.40;84.10;;;26.41;50.06;95533.50;4960915;28;20977;-59
2023/07/10 06:31:26;;;;;;;7.43;4.67;;;25.70;83.60;;;26.60;50.12;95533.53;4956162;28;20459;-60
2023/07/10 06:33:54;;;;;;;22.27;5.30;;;25.80;82.90;;;26.78;49.47;95540.84;4962702;28;21004;-59
2023/07/10 06:36:21;;;;;;;9.53;5.70;;;26.00;82.10;;;26.95;48.82;95536.47;4961899;28;20522;-60
2023/07/10 06:38:48;;;;;;;12.83;5.60;;;26.20;81.10;;;27.12;48.74;95530.47;4960968;28;20456;-60
2023/07/10 06:41:16;;;;;;;16.83;6.30;;;26.40;80.30;;;27.26;48.39;95539.22;4960206;28;20486;-62
2023/07/10 06:43:43;;;;;;;6.00;5.50;;;26.50;79.70;;;27.42;47.63;95535.94;4959908;28;20458;-60
2023/07/10 06:46:12;;;;;;;6.40;4.40;;;26.60;78.80;;;27.60;47.34;95542.31;4959341;28;20560;-60
2023/07/10 06:48:39;;;;;;;6.50;4.20;;;26.80;78.20;;;27.80;46.89;95542.03;4960923;28;20462;-61
2023/07/10 06:51:06;;;;;;;5.53;4.00;;;27.00;77.90;;;27.99;47.02;95540.09;4960132;28;20478;-60
2023/07/10 06:53:34;;;;;;;5.20;4.30;;;27.20;77.70;;;28.17;46.86;95541.88;4962996;28;20490;-66
2023/07/10 06:56:02;;;;;;;4.30;4.00;;;27.30;76.80;;;28.36;46.01;95531.75;4973222;28;20491;-67
2023/07/10 06:58:30;;;;;;;5.93;4.13;;;27.50;75.70;;;28.55;45.62;95536.00;4959574;28;20557;-67
2023/07/10 07:00:57;;;;;;;5.43;4.53;;;27.70;75.20;;;28.73;44.93;95528.81;4964219;28;20475;-67
2023/07/10 07:03:26;;;;;;;5.40;4.20;;;27.90;74.30;;;28.90;44.86;95524.31;4961585;28;20462;-67
2023/07/10 07:05:53;;;;;;;5.27;4.77;;;28.10;73.80;;;29.10;44.86;95533.91;4963483;28;20507;-67
2023/07/10 07:08:21;;;;;;;3.93;3.63;;;28.30;73.50;;;29.24;43.79;95529.88;4962773;28;20466;-67
2023/07/10 07:10:49;;;;;;;4.50;4.20;;;28.40;72.60;;;29.37;44.31;95530.66;4963637;28;20500;-67
2023/07/10 07:13:17;;;;;;;6.20;4.37;;;28.50;72.00;;;29.50;43.58;95530.38;4959565;28;20552;-66
2023/07/10 07:15:48;;;;;;;7.03;4.60;;;28.70;71.10;;;29.59;42.98;95531.63;4964585;28;20575;-66
2023/07/10 07:18:15;;;;;;;4.40;4.00;;;28.80;70.60;;;29.70;42.36;95532.63;4960077;28;20463;-67
2023/07/10 07:20:44;;;;;;;8.50;4.77;;;28.90;69.90;;;29.83;42.73;95512.53;4960357;28;20488;-60
2023/07/10 07:23:11;;;;;;;10.83;5.10;;;29.00;70.00;;;29.96;43.11;95519.53;4962969;28;20212;-61
2023/07/10 07:25:40;;;;;;;3.63;3.33;;;29.10;69.90;;;30.13;42.13;95516.81;4959243;28;21026;-60
2023/07/10 07:28:07;;;;;;;5.90;4.10;;;29.30;68.90;;;30.26;42.41;95521.09;4963382;28;20203;-60
2023/07/10 07:30:35;;;;;;;10.23;4.27;;;29.40;68.70;;;30.39;42.28;95513.44;4963234;28;20284;-61
2023/07/10 07:33:02;;;;;;;4.67;3.33;;;29.60;68.10;;;30.52;41.98;95516.84;4962462;28;20265;-61
2023/07/10 07:35:30;;;;;;;11.07;3.63;;;29.70;67.70;;;30.64;41.17;95514.84;4960846;28;20231;-67
2023/07/10 07:37:58;;;;;;;10.43;3.20;;;29.80;67.00;;;30.75;40.39;95511.22;4960184;28;20203;-68
2023/07/10 07:40:26;;;;;;;6.80;3.70;;;29.90;66.50;;;30.81;41.22;95514.00;4961599;28;20611;-67
2023/07/10 07:42:53;;;;;;;6.60;3.37;;;30.00;66.60;;;30.92;40.64;95513.03;4963633;28;20678;-67
2023/07/10 07:45:20;;;;;;;10.70;3.93;;;30.10;66.40;;;31.03;40.72;95504.00;4961862;28;20704;-67
2023/07/10 07:47:48;;;;;;;9.53;4.33;;;30.20;65.70;;;31.19;39.99;95501.47;4956358;28;20214;-67
2023/07/10 07:50:15;;;;;;;8.93;3.90;;;30.40;64.50;;;31.31;40.02;95506.72;4962311;28;20223;-66
2023/07/10 07:52:42;;;;;;;5.00;4.00;;;30.50;64.60;;;31.46;39.92;95505.00;4963552;28;20195;-66
2023/07/10 07:55:11;;;;;;;4.60;4.00;;;30.60;64.50;;;31.62;39.85;95502.44;4962248;28;20964;-68
2023/07/10 07:57:38;;;;;;;4.50;3.90;;;30.70;64.30;;;31.77;39.49;95510.75;4959874;28;20668;-67
2023/07/10 08:00:08;;;;;;;7.72;3.70;;;30.90;63.70;;;31.96;39.30;95507.66;4962653;28;20231;-68
2023/07/10 08:02:35;;;;;;;8.82;3.95;;;31.10;63.20;;;32.12;38.99;95506.72;4961395;28;20308;-61
2023/07/10 08:05:02;;;;;;;4.75;3.65;;;31.20;63.30;;;32.29;38.71;95511.22;4961778;28;20376;-67
2023/07/10 08:07:29;;;;;;;8.73;3.72;;;31.40;62.70;;;32.43;38.74;95506.94;4959840;28;20204;-66
2023/07/10 08:09:58;;;;;;;4.35;3.70;;;31.60;62.40;;;32.56;38.64;95499.38;4963393;28;20227;-67
2023/07/10 08:12:30;;;;;;;6.68;4.55;;;31.70;61.80;;;32.69;37.29;95497.03;4963095;28;20206;-67
2023/07/10 08:14:57;;;;;;;4.57;4.18;;;31.80;59.70;;;32.83;38.28;95494.66;4962823;28;20235;-66
2023/07/10 08:17:25;;;;;;;3.80;3.50;;;32.00;61.00;;;32.97;38.14;95489.53;4959580;28;20211;-61
2023/07/10 08:19:52;;;;;;;10.93;4.45;;;32.10;61.30;;;33.13;37.78;95498.59;4963257;28;20708;-67
2023/07/10 08:22:20;;;;;;;3.40;3.10;;;32.30;60.70;;;33.28;37.67;95491.56;4959561;28;20210;-66
2023/07/10 08:24:47;;;;;;;7.43;4.50;;;32.40;60.20;;;33.27;37.08;95492.66;4963348;28;20785;-69
2023/07/10 08:27:14;;;;;;;4.95;3.88;;;32.50;59.40;;;33.29;37.26;95491.28;4961617;28;20789;-68
2023/07/10 08:29:43;;;;;;;7.00;4.47;;;32.40;59.60;;;33.41;37.10;95485.59;4962976;28;20228;-67
2023/07/10 08:32:10;;;;;;;14.88;3.10;;;32.60;59.80;;;33.52;37.25;95489.97;4961431;28;20608;-68
2023/07/10 08:34:37;;;;;;;6.97;4.32;;;32.70;59.30;;;33.62;36.64;95481.00;4957941;28;20236;-67
2023/07/10 08:37:05;;;;;;;7.60;3.45;;;32.80;59.00;;;33.79;36.88;95482.66;4960996;28;20583;-67
2023/07/10 08:39:32;;;;;;;6.82;3.90;;;32.90;58.30;;;33.93;36.99;95484.59;4962684;28;20255;-68
2023/07/10 08:42:01;;;;;;;5.00;3.58;;;33.00;58.30;;;34.12;35.85;95486.78;4960067;28;20240;-67
2023/07/10 08:44:32;;;;;;;6.47;3.45;;;33.20;57.80;;;34.31;35.31;95484.31;4963027;28;20236;-68
2023/07/10 08:47:02;;;;;;;4.30;3.83;;;33.40;57.40;;;34.42;34.25;95485.13;4958179;28;20223;-68
2023/07/10 08:49:33;;;;;;;4.53;3.20;;;33.50;55.00;;;34.46;34.90;95492.47;4966157;28;20254;-68
2023/07/10 08:52:07;;;;;;;7.45;3.50;;;33.70;56.30;;;34.55;34.34;95484.53;4965851;28;20199;-61
2023/07/10 08:54:34;;;;;;;5.50;3.40;;;33.80;55.80;;;34.67;34.40;95481.50;4967312;28;20258;-60
2023/07/10 08:57:16;;;;;;;3.35;2.92;;;33.90;55.70;;;34.78;33.72;95482.31;4965320;28;20211;-61
2023/07/10 08:59:49;;;;;;;3.40;2.67;;;33.90;54.30;;;34.87;34.15;95488.84;4963969;28;20849;-68
2023/07/10 09:02:28;;;;;;;6.57;3.10;;;34.10;54.80;;;34.99;33.74;95486.59;4965091;28;20226;-68
2023/07/10 09:04:56;;;;;;;6.25;3.63;;;34.20;54.50;;;35.13;34.53;95488.72;4964081;28;20255;-67
2023/07/10 09:07:23;;;;;;;7.25;4.63;;;34.30;54.90;;;35.24;34.17;95482.09;4959566;28;20235;-68
2023/07/10 09:09:53;;;;;;;7.70;3.55;;;34.40;54.30;;;35.27;33.60;95475.28;4965098;28;20234;-68
2023/07/10 09:12:24;;;;;;;4.00;3.60;;;34.50;54.20;;;35.38;33.85;95476.06;4966175;28;20211;-61
2023/07/10 09:14:54;;;;;;;3.05;2.95;;;34.50;53.60;;;35.47;34.03;95471.63;4959814;28;20285;-67
2023/07/10 09:17:37;;;;;;;3.95;3.70;;;34.70;53.80;;;35.46;32.12;95472.72;4967258;28;20204;-62
2023/07/10 09:20:08;;;;;;;8.45;3.67;;;34.70;53.00;;;35.26;32.81;95471.75;4963920;28;20318;-68
2023/07/10 09:22:36;;;;;;;21.75;10.48;;;34.50;52.70;;;35.20;32.43;95470.13;4966166;28;20707;-68
2023/07/10 09:25:09;;;;;;;4.57;4.03;;;34.40;52.20;;;35.12;32.45;95468.78;4963606;28;20228;-67
2023/07/10 09:27:36;;;;;;;2.80;2.60;;;34.30;52.10;;;35.12;32.86;95465.22;4965661;28;20219;-68
2023/07/10 09:30:05;;;;;;;5.80;3.88;;;34.30;51.60;;;34.98;32.30;95467.75;4962205;28;20231;-60
2023/07/10 09:32:36;;;;;;;4.15;3.05;;;34.20;51.20;;;34.95;32.02;95471.88;4964925;28;20218;-67
2023/07/10 09:35:04;;;;;;;6.05;3.05;;;34.10;51.30;;;35.09;32.11;95468.50;4962477;28;20235;-61
2023/07/10 09:37:35;;;;;;;3.85;2.90;;;34.20;51.30;;;35.24;31.54;95470.34;4965314;28;20207;-67
2023/07/10 09:40:20;;;;;;;4.20;2.95;;;34.30;51.30;;;35.40;32.33;95465.63;4963597;28;20312;-60
2023/07/10 09:42:47;;;;;;;4.13;3.42;;;34.50;50.80;;;35.48;31.88;95465.06;4963861;28;20214;-67
2023/07/10 09:45:16;;;;;;;3.00;2.70;;;34.60;50.80;;;35.60;31.63;95465.50;4963894;28;20293;-65
2023/07/10 09:47:50;;;;;;;7.15;2.58;;;34.70;50.90;;;35.67;31.20;95463.25;4963046;28;20254;-61
2023/07/10 09:50:19;;;;;;;3.47;3.20;;;34.80;50.80;;;35.76;30.91;95459.91;4962780;28;20234;-68
2023/07/10 09:52:52;;;;;;;3.10;2.90;;;34.90;50.10;;;35.82;30.30;95458.78;4968345;28;20203;-68
2023/07/10 09:55:21;;;;;;;4.20;3.17;;;35.00;49.30;;;35.88;30.07;95452.16;4965225;28;20254;-61
2023/07/10 09:57:57;;;;;;;3.90;3.60;;;35.00;48.20;;;35.89;29.94;95451.06;4964454;28;20288;-60
2023/07/10 10:00:24;;;;;;;4.57;3.22;;;35.10;48.40;;;35.90;30.05;95441.78;4964225;28;20227;-62
2023/07/10 10:02:56;;;;;;;8.55;3.28;;;35.10;47.20;;;35.85;29.54;95439.06;4965421;28;20203;-68
2023/07/10 10:05:24;;;;;;;3.28;2.97;;;35.10;47.80;;;35.82;30.08;95435.00;4965926;28;20351;-67
2023/07/10 10:07:53;;;;;;;3.78;3.58;;;35.10;48.30;;;35.78;30.33;95422.97;4961470;28;20243;-62
2023/07/10 10:10:26;;;;;;;3.80;3.38;;;35.00;48.20;;;35.77;30.49;95426.00;4961177;28;20238;-67
2023/07/10 10:13:05;;;;;;;4.68;3.10;;;35.00;48.30;;;35.75;29.42;95425.44;4965711;28;20222;-61
2023/07/10 10:15:43;;;;;;;6.57;2.70;;;34.90;46.80;;;35.65;29.04;95424.41;4961999;28;20231;-69
2023/07/10 10:18:34;;;;;;;3.53;3.22;;;34.90;47.10;;;35.54;28.60;95420.13;4961145;28;20272;-61
2023/07/10 10:21:02;;;;;;;4.43;3.22;;;34.80;47.00;;;35.48;29.24;95413.88;4960582;28;20227;-62
2023/07/10 10:23:31;;;;;;;2.90;2.67;;;34.70;46.80;;;35.47;29.30;95411.44;4964724;28;20215;-62